Time;durP1;ratioP1;P1;durP2;ratioP2;P2;SDS_P1;SDS_P2;PMS_P1;PMS_P2;Temp;Humidity;BMP_temperature;BMP_pressure;BME280_temperature;BME280_humidity;BME280_pressure;Samples;Min_cycle;Max_cycle;Signal;HPM_P1;HPM_P2
2023/05/27 00:00:02;;;;;;;3.65;1.70;;;17.10;53.40;;;;;;5014477;28;20088;-77
2023/05/27 00:02:29;;;;;;;3.60;1.90;;;17.10;53.50;;;;;;5029285;28;20053;-78
2023/05/27 00:04:55;;;;;;;3.78;1.80;;;17.10;53.50;;;;;;5013414;28;20037;-78
2023/05/27 00:07:21;;;;;;;2.65;1.58;;;17.00;53.60;;;;;;4996824;28;20031;-78
2023/05/27 00:09:47;;;;;;;3.35;1.80;;;17.00;53.60;;;;;;5013503;28;20092;-76
2023/05/27 00:12:13;;;;;;;2.80;1.75;;;17.00;53.70;;;;;;5013895;28;20045;-78
2023/05/27 00:14:38;;;;;;;3.35;1.70;;;16.90;53.70;;;;;;4996471;28;20038;-77
2023/05/27 00:17:04;;;;;;;3.60;1.67;;;16.90;53.70;;;;;;5012881;28;20037;-78
2023/05/27 00:19:30;;;;;;;3.35;1.88;;;16.90;53.70;;;;;;5030187;28;20371;-78
2023/05/27 00:21:56;;;;;;;3.95;1.85;;;16.80;53.70;;;;;;5014123;28;20034;-78
2023/05/27 00:24:22;;;;;;;3.75;1.90;;;16.70;53.70;;;;;;5012716;28;20022;-77
2023/05/27 00:26:48;;;;;;;3.40;1.77;;;16.70;53.70;;;;;;5012739;28;20083;-79
2023/05/27 00:29:16;;;;;;;3.42;1.70;;;16.70;53.80;;;;;;5046138;28;20033;-78
2023/05/27 00:31:42;;;;;;;3.90;2.15;;;16.70;53.90;;;;;;5029259;28;20503;-78
2023/05/27 00:34:08;;;;;;;2.67;1.80;;;16.60;53.90;;;;;;4997020;28;20042;-78
2023/05/27 00:36:33;;;;;;;3.05;1.83;;;16.60;54.00;;;;;;5012825;28;20041;-79
2023/05/27 00:39:00;;;;;;;2.67;1.60;;;16.50;54.00;;;;;;4979991;28;20129;-77
2023/05/27 00:41:26;;;;;;;3.42;1.90;;;16.50;54.10;;;;;;5012789;28;20030;-77
2023/05/27 00:43:52;;;;;;;3.15;1.65;;;16.50;54.10;;;;;;5012616;28;20088;-77
2023/05/27 00:46:18;;;;;;;3.75;1.80;;;16.40;54.10;;;;;;5013763;28;20045;-77
2023/05/27 00:48:45;;;;;;;3.55;1.80;;;16.40;54.20;;;;;;5029132;28;20387;-77
2023/05/27 00:51:11;;;;;;;3.67;1.67;;;16.30;54.20;;;;;;5028903;28;20036;-76
2023/05/27 00:53:43;;;;;;;4.90;1.83;;;16.30;54.30;;;;;;5045413;28;20569;-77
2023/05/27 00:56:09;;;;;;;2.97;1.70;;;16.30;54.30;;;;;;4996399;28;20038;-77
2023/05/27 00:58:36;;;;;;;3.80;1.70;;;16.20;54.30;;;;;;5012524;28;20390;-77
2023/05/27 01:01:04;;;;;;;3.97;1.85;;;16.20;54.40;;;;;;5012069;28;20049;-78
2023/05/27 01:03:32;;;;;;;3.90;1.80;;;16.20;54.50;;;;;;5013377;28;20085;-77
2023/05/27 01:06:05;;;;;;;6.07;2.05;;;16.10;54.50;;;;;;5012556;28;20049;-78
2023/05/27 01:09:00;;;;;;;4.13;2.13;;;16.10;54.60;;;;;;4995816;28;20533;-78
2023/05/27 01:11:36;;;;;;;2.95;1.60;;;16.00;54.60;;;;;;4995877;28;20050;-81
2023/05/27 01:14:07;;;;;;;2.25;1.60;;;16.00;54.60;;;;;;5029378;28;20092;-79
2023/05/27 01:16:36;;;;;;;3.70;1.58;;;16.00;54.60;;;;;;5028882;28;20037;-80
2023/05/27 01:19:11;;;;;;;2.53;1.70;;;15.90;54.70;;;;;;5028671;28;20052;-79
2023/05/27 01:21:39;;;;;;;3.33;1.95;;;15.90;54.70;;;;;;5012402;28;20095;-80
2023/05/27 01:24:05;;;;;;;3.35;2.08;;;15.90;54.70;;;;;;4996321;28;20038;-80
2023/05/27 01:26:31;;;;;;;3.53;1.88;;;15.80;54.80;;;;;;4996779;28;20125;-79
2023/05/27 01:28:57;;;;;;;4.88;2.38;;;15.80;54.80;;;;;;5012181;28;20057;-79
2023/05/27 01:31:36;;;;;;;3.83;1.70;;;15.80;54.80;;;;;;4980373;28;20049;-80
2023/05/27 01:34:09;;;;;;;4.18;1.80;;;15.80;54.90;;;;;;5028506;28;20145;-80
2023/05/27 01:36:54;;;;;;;4.32;2.28;;;15.70;54.90;;;;;;4995895;28;20046;-79
2023/05/27 01:39:22;;;;;;;3.90;1.90;;;15.70;55.00;;;;;;4995963;28;20471;-80
2023/05/27 01:41:50;;;;;;;3.92;2.05;;;15.70;54.90;;;;;;4995886;28;20124;-80
2023/05/27 01:44:18;;;;;;;3.47;1.80;;;15.70;55.00;;;;;;4979579;28;20038;-80
2023/05/27 01:46:44;;;;;;;3.05;1.67;;;15.60;55.10;;;;;;5011719;28;20030;-80
2023/05/27 01:49:12;;;;;;;3.60;1.90;;;15.60;55.10;;;;;;5028029;28;20122;-81
2023/05/27 01:51:38;;;;;;;4.60;2.40;;;15.50;55.10;;;;;;5046328;28;20447;-80
2023/05/27 01:54:04;;;;;;;2.70;1.75;;;15.50;55.10;;;;;;4999499;28;20032;-80
2023/05/27 01:56:29;;;;;;;3.63;1.70;;;15.50;55.20;;;;;;4999917;28;20080;-80
2023/05/27 01:58:55;;;;;;;3.72;1.88;;;15.50;55.20;;;;;;4983133;28;20038;-80
2023/05/27 02:01:22;;;;;;;2.88;1.52;;;15.40;55.20;;;;;;4998865;28;20046;-80
2023/05/27 02:03:50;;;;;;;5.25;2.13;;;15.40;55.30;;;;;;4999240;28;20034;-81
2023/05/27 02:06:16;;;;;;;4.53;1.73;;;15.40;55.40;;;;;;4982840;28;20034;-80
2023/05/27 02:08:42;;;;;;;3.58;2.03;;;15.30;55.30;;;;;;5015534;28;20044;-79
2023/05/27 02:11:08;;;;;;;3.25;1.90;;;15.30;55.40;;;;;;4999467;28;20030;-80
2023/05/27 02:13:36;;;;;;;4.03;1.88;;;15.30;55.40;;;;;;4999042;28;20080;-79
2023/05/27 02:16:02;;;;;;;3.90;1.73;;;15.30;55.50;;;;;;5031559;28;20562;-80
2023/05/27 02:18:28;;;;;;;4.28;1.75;;;15.20;55.50;;;;;;4999794;28;20034;-80
2023/05/27 02:20:53;;;;;;;2.88;1.80;;;15.20;55.50;;;;;;4999097;28;20029;-80
2023/05/27 02:23:19;;;;;;;3.83;2.00;;;15.20;55.60;;;;;;4998953;28;20394;-80
2023/05/27 02:25:45;;;;;;;3.90;1.80;;;15.20;55.60;;;;;;4998726;28;20026;-79
2023/05/27 02:28:10;;;;;;;3.90;1.90;;;15.10;55.60;;;;;;5015183;28;20037;-80
2023/05/27 02:30:37;;;;;;;3.55;1.73;;;15.10;55.70;;;;;;4998749;28;20383;-79
2023/05/27 02:33:03;;;;;;;3.95;1.90;;;15.10;55.70;;;;;;5014880;28;20038;-79
2023/05/27 02:35:29;;;;;;;3.15;1.70;;;15.10;55.70;;;;;;5014773;28;20033;-80
2023/05/27 02:37:55;;;;;;;3.22;2.10;;;15.00;55.80;;;;;;4999197;28;20537;-80
2023/05/27 02:40:28;;;;;;;3.95;1.92;;;15.00;55.80;;;;;;5047864;28;20080;-80
2023/05/27 02:42:58;;;;;;;3.58;2.08;;;15.00;55.80;;;;;;5031380;28;20041;-80
2023/05/27 02:45:25;;;;;;;4.55;1.92;;;14.90;55.80;;;;;;5014816;28;20080;-80
2023/05/27 02:47:51;;;;;;;3.63;1.85;;;14.90;55.80;;;;;;5014973;28;20030;-80
2023/05/27 02:50:17;;;;;;;3.50;1.98;;;14.90;55.80;;;;;;5048069;28;20029;-80
2023/05/27 02:52:42;;;;;;;3.53;1.83;;;14.90;55.90;;;;;;4998950;28;20030;-80
2023/05/27 02:55:08;;;;;;;2.75;1.80;;;14.90;56.00;;;;;;4998235;28;20057;-80
2023/05/27 02:57:35;;;;;;;3.63;2.03;;;14.80;56.00;;;;;;4982304;28;20026;-79
2023/05/27 03:00:01;;;;;;;3.88;1.98;;;14.80;56.00;;;;;;5047747;28;20041;-79
2023/05/27 03:02:27;;;;;;;4.43;2.30;;;14.80;56.10;;;;;;4997229;28;20053;-80
2023/05/27 03:04:55;;;;;;;4.78;2.42;;;14.80;56.10;;;;;;5014032;28;20041;-80
2023/05/27 03:07:21;;;;;;;3.08;1.88;;;14.70;56.00;;;;;;5030763;28;20449;-80
2023/05/27 03:09:46;;;;;;;5.25;2.28;;;14.70;56.10;;;;;;5031642;28;20038;-79
2023/05/27 03:12:12;;;;;;;3.20;2.10;;;14.70;56.20;;;;;;5014196;28;20044;-80
2023/05/27 03:14:38;;;;;;;3.35;1.80;;;14.70;56.20;;;;;;4997980;28;20030;-80
2023/05/27 03:17:04;;;;;;;3.90;1.92;;;14.60;56.80;;;;;;4997837;28;20030;-80
2023/05/27 03:19:30;;;;;;;4.07;2.08;;;14.60;56.20;;;;;;4998061;28;20133;-80
2023/05/27 03:21:56;;;;;;;3.60;2.00;;;14.60;56.30;;;;;;4998493;28;20040;-79
2023/05/27 03:24:24;;;;;;;3.97;2.00;;;14.60;56.30;;;;;;5014267;28;20030;-80
2023/05/27 03:26:51;;;;;;;3.60;2.00;;;14.60;56.30;;;;;;5013839;28;20042;-80
2023/05/27 03:29:18;;;;;;;3.75;2.05;;;14.50;56.30;;;;;;4997903;28;20125;-80
2023/05/27 03:31:44;;;;;;;5.15;2.20;;;14.50;56.30;;;;;;5014782;28;20141;-80
2023/05/27 03:34:13;;;;;;;3.00;2.00;;;14.50;56.30;;;;;;5014760;28;20026;-80
2023/05/27 03:36:42;;;;;;;3.45;1.90;;;14.50;56.40;;;;;;4997563;28;20037;-79
2023/05/27 03:39:08;;;;;;;5.90;2.22;;;14.40;56.40;;;;;;4997403;28;20029;-79
2023/05/27 03:41:38;;;;;;;3.40;1.80;;;14.40;56.40;;;;;;5046750;28;20041;-80
2023/05/27 03:44:04;;;;;;;4.72;2.05;;;14.40;56.50;;;;;;4997428;28;20128;-80
2023/05/27 03:46:31;;;;;;;3.97;1.92;;;14.40;56.50;;;;;;5013699;28;20176;-80
2023/05/27 03:48:57;;;;;;;4.22;2.00;;;14.30;56.50;;;;;;4997604;28;20071;-80
2023/05/27 03:51:23;;;;;;;2.90;1.73;;;14.30;56.50;;;;;;5029743;28;20117;-80
2023/05/27 03:53:50;;;;;;;4.20;2.22;;;14.30;56.50;;;;;;5029825;28;20119;-80
2023/05/27 03:56:16;;;;;;;3.13;1.80;;;14.30;56.60;;;;;;5013611;28;20065;-80
2023/05/27 03:58:42;;;;;;;2.28;1.77;;;14.30;56.50;;;;;;5046543;28;20502;-80
2023/05/27 04:01:08;;;;;;;3.45;1.80;;;14.30;56.60;;;;;;4997023;28;20054;-80
2023/05/27 04:03:34;;;;;;;4.07;2.15;;;14.20;56.60;;;;;;5047018;28;20049;-80
2023/05/27 04:06:00;;;;;;;3.15;1.77;;;14.20;56.60;;;;;;5013455;28;20038;-80
2023/05/27 04:08:27;;;;;;;3.60;1.90;;;14.20;56.70;;;;;;5014597;28;20501;-80
2023/05/27 04:10:56;;;;;;;4.50;2.10;;;14.20;56.70;;;;;;5029602;28;20044;-80
2023/05/27 04:13:23;;;;;;;4.07;2.05;;;14.20;56.80;;;;;;5045772;28;20038;-80
2023/05/27 04:15:49;;;;;;;4.10;2.08;;;14.10;56.60;;;;;;5029302;28;20030;-79
2023/05/27 04:18:15;;;;;;;3.42;1.90;;;14.10;56.70;;;;;;4997392;28;20475;-80
2023/05/27 04:20:42;;;;;;;4.15;2.15;;;14.10;56.70;;;;;;5013338;28;20489;-80
2023/05/27 04:23:09;;;;;;;3.53;2.17;;;14.10;56.70;;;;;;4996718;28;20026;-79
2023/05/27 04:25:35;;;;;;;4.25;2.15;;;14.10;56.70;;;;;;5030324;28;20095;-80
2023/05/27 04:28:05;;;;;;;4.53;2.08;;;14.10;56.70;;;;;;5028856;28;20034;-80
2023/05/27 04:30:34;;;;;;;3.28;2.00;;;14.00;56.70;;;;;;5013529;28;20065;-79
2023/05/27 04:33:04;;;;;;;4.43;2.05;;;14.10;56.80;;;;;;4996481;28;20042;-80
2023/05/27 04:35:31;;;;;;;3.42;2.00;;;14.00;56.80;;;;;;5029051;28;20033;-80
2023/05/27 04:38:01;;;;;;;2.72;1.70;;;14.00;56.80;;;;;;4996453;28;20507;-80
2023/05/27 04:40:34;;;;;;;2.92;1.88;;;14.00;56.90;;;;;;4997785;28;20036;-80
2023/05/27 04:43:23;;;;;;;2.80;1.90;;;13.90;57.50;;;;;;5000437;28;20363;-80
2023/05/27 04:45:49;;;;;;;4.35;2.13;;;14.00;56.90;;;;;;5012742;28;20489;-81
2023/05/27 04:48:15;;;;;;;5.72;2.00;;;13.90;56.90;;;;;;4996855;28;20034;-79
2023/05/27 04:50:42;;;;;;;4.95;2.30;;;13.90;56.90;;;;;;4996264;28;20026;-80
2023/05/27 04:53:08;;;;;;;3.55;1.73;;;13.90;57.00;;;;;;4996420;28;20491;-80
2023/05/27 04:55:35;;;;;;;4.38;1.95;;;13.90;57.00;;;;;;4995968;28;20053;-80
2023/05/27 04:58:03;;;;;;;3.88;1.98;;;13.90;57.10;;;;;;5028887;28;20040;-81
2023/05/27 05:00:38;;;;;;;3.47;1.90;;;13.90;57.10;;;;;;4995805;28;20034;-81
2023/05/27 05:03:06;;;;;;;2.92;1.88;;;13.90;57.10;;;;;;5012575;28;20113;-80
2023/05/27 05:05:33;;;;;;;2.80;1.80;;;13.90;57.10;;;;;;4996342;28;20044;-79
2023/05/27 05:07:59;;;;;;;3.45;1.83;;;13.90;57.20;;;;;;5012597;28;20463;-80
2023/05/27 05:10:25;;;;;;;3.63;2.20;;;13.80;57.10;;;;;;5012265;28;20041;-80
2023/05/27 05:12:52;;;;;;;3.25;1.80;;;13.80;57.20;;;;;;4996224;28;20041;-80
2023/05/27 05:15:18;;;;;;;4.10;2.00;;;13.80;57.20;;;;;;5028666;28;20068;-81
2023/05/27 05:17:46;;;;;;;3.13;1.80;;;13.90;57.30;;;;;;4996553;28;20360;-81
2023/05/27 05:20:13;;;;;;;7.47;2.33;;;13.80;57.30;;;;;;4995989;28;20113;-79
2023/05/27 05:22:39;;;;;;;3.72;2.13;;;13.80;57.30;;;;;;4979999;28;20470;-80
2023/05/27 05:25:05;;;;;;;3.67;2.15;;;13.80;57.40;;;;;;4995921;28;20153;-80
2023/05/27 05:27:37;;;;;;;4.70;2.40;;;13.80;57.40;;;;;;5000865;28;20036;-80
2023/05/27 05:30:04;;;;;;;3.22;1.98;;;13.80;57.40;;;;;;4999698;28;20038;-79
2023/05/27 05:32:30;;;;;;;4.20;2.28;;;13.90;57.40;;;;;;4999627;28;20129;-79
2023/05/27 05:34:56;;;;;;;4.05;1.98;;;13.80;57.50;;;;;;4999793;28;20479;-79
2023/05/27 05:37:23;;;;;;;3.35;2.00;;;13.80;57.50;;;;;;4983254;28;20057;-80
2023/05/27 05:39:50;;;;;;;3.72;2.10;;;13.80;57.50;;;;;;5016406;28;20034;-80
2023/05/27 05:42:17;;;;;;;3.72;2.13;;;13.80;57.50;;;;;;5049314;28;20030;-80
2023/05/27 05:44:42;;;;;;;3.97;2.10;;;13.80;57.60;;;;;;5016965;28;20064;-79
2023/05/27 05:47:08;;;;;;;2.85;1.85;;;13.80;57.60;;;;;;5032399;28;20030;-79
2023/05/27 05:49:35;;;;;;;2.85;1.80;;;13.80;57.60;;;;;;5000328;28;20482;-78
2023/05/27 05:52:01;;;;;;;4.07;2.05;;;13.80;57.60;;;;;;4983666;28;20041;-79
2023/05/27 05:54:26;;;;;;;3.70;2.00;;;13.80;57.60;;;;;;4999538;28;20034;-78
2023/05/27 05:56:55;;;;;;;3.45;2.13;;;13.80;57.70;;;;;;4999998;28;20026;-80
2023/05/27 05:59:21;;;;;;;4.18;2.20;;;13.80;57.70;;;;;;5048985;28;20029;-82
2023/05/27 06:01:46;;;;;;;3.65;1.95;;;13.80;57.70;;;;;;5015745;28;20441;-81
2023/05/27 06:04:13;;;;;;;4.85;2.40;;;13.80;57.70;;;;;;5000418;28;20037;-83
2023/05/27 06:06:44;;;;;;;4.45;2.30;;;13.80;57.80;;;;;;5050168;28;20038;-79
2023/05/27 06:09:27;;;;;;;4.47;2.42;;;13.90;57.80;;;;;;5018467;28;20384;-81
2023/05/27 06:11:56;;;;;;;3.17;1.98;;;13.90;57.80;;;;;;5031468;28;20121;-83
2023/05/27 06:14:23;;;;;;;3.92;2.08;;;13.90;57.90;;;;;;5015288;28;20038;-80
2023/05/27 06:16:50;;;;;;;6.05;2.42;;;13.90;57.90;;;;;;5049048;28;20148;-81
2023/05/27 06:19:15;;;;;;;3.80;2.38;;;13.90;58.00;;;;;;4998948;28;20072;-80
2023/05/27 06:21:41;;;;;;;4.45;2.30;;;13.90;58.00;;;;;;5048371;28;20034;-79
2023/05/27 06:24:30;;;;;;;4.82;2.20;;;13.90;58.00;;;;;;5014799;28;20042;-79
2023/05/27 06:27:17;;;;;;;4.32;2.15;;;13.90;57.90;;;;;;5018264;28;20038;-79
2023/05/27 06:29:44;;;;;;;3.58;1.90;;;13.90;57.90;;;;;;5031479;28;20088;-79
2023/05/27 06:32:10;;;;;;;3.83;2.08;;;13.90;58.00;;;;;;4998944;28;20042;-79
2023/05/27 06:34:36;;;;;;;3.28;2.03;;;13.90;58.00;;;;;;5015683;28;20127;-79
2023/05/27 06:37:02;;;;;;;4.18;2.08;;;14.00;58.10;;;;;;4998493;28;20033;-80
2023/05/27 06:39:28;;;;;;;4.95;2.38;;;14.00;58.10;;;;;;5014966;28;20486;-80
2023/05/27 06:41:53;;;;;;;3.72;2.20;;;14.00;58.10;;;;;;5014829;28;20064;-81
2023/05/27 06:44:45;;;;;;;4.75;2.22;;;14.00;58.20;;;;;;5014844;28;20415;-82
2023/05/27 06:47:16;;;;;;;3.30;2.00;;;14.00;58.10;;;;;;5048952;28;20454;-82
2023/05/27 06:49:43;;;;;;;3.60;2.28;;;14.00;58.20;;;;;;4998705;28;20029;-81
2023/05/27 06:52:09;;;;;;;4.32;2.00;;;14.00;58.30;;;;;;4983432;28;20443;-83
2023/05/27 06:54:47;;;;;;;3.30;2.05;;;14.10;58.30;;;;;;5000845;28;20026;-84
2023/05/27 06:57:31;;;;;;;4.20;1.95;;;14.10;58.30;;;;;;5002406;28;20045;-83
2023/05/27 07:00:08;;;;;;;;;;;14.10;58.20;;;;;;5015805;28;20034;-80
2023/05/27 07:02:42;;;;;;;4.18;2.22;;;14.10;58.00;;;;;;4999975;28;20367;-81
2023/05/27 07:05:08;;;;;;;3.90;2.08;;;14.10;58.00;;;;;;4997969;28;20045;-82
2023/05/27 07:07:33;;;;;;;4.95;2.20;;;14.10;58.10;;;;;;5015736;28;20033;-83
2023/05/27 07:09:59;;;;;;;3.47;2.00;;;14.10;58.30;;;;;;5014892;28;20042;-82
2023/05/27 07:12:25;;;;;;;6.35;2.42;;;14.20;58.40;;;;;;4982036;28;20471;-82
2023/05/27 07:14:53;;;;;;;4.32;2.25;;;14.20;58.40;;;;;;4999038;28;20107;-83
2023/05/27 07:17:21;;;;;;;3.85;2.08;;;14.20;58.40;;;;;;4999111;28;20053;-83
2023/05/27 07:19:47;;;;;;;3.60;2.25;;;14.20;58.40;;;;;;4998143;28;20030;-84
2023/05/27 07:22:16;;;;;;;4.43;2.35;;;14.20;58.40;;;;;;5047995;28;20065;-83
2023/05/27 07:24:42;;;;;;;4.18;2.33;;;14.30;58.50;;;;;;4998344;28;20038;-83
2023/05/27 07:27:07;;;;;;;4.20;2.10;;;14.30;58.50;;;;;;4997966;28;20034;-82
2023/05/27 07:29:34;;;;;;;5.30;2.50;;;14.30;58.50;;;;;;4982364;28;20363;-85
2023/05/27 07:32:18;;;;;;;3.58;2.00;;;14.30;58.50;;;;;;5000532;28;20033;-81
2023/05/27 07:34:44;;;;;;;3.08;2.10;;;14.40;58.50;;;;;;4997972;28;20030;-84
2023/05/27 07:37:10;;;;;;;5.07;2.85;;;14.40;58.60;;;;;;4997764;28;20088;-81
2023/05/27 07:39:36;;;;;;;6.28;2.85;;;14.50;58.90;;;;;;5030339;28;20061;-82
2023/05/27 07:42:02;;;;;;;5.05;2.92;;;14.50;59.00;;;;;;5014468;28;20038;-83
2023/05/27 07:44:30;;;;;;;6.72;3.42;;;14.60;59.30;;;;;;5013907;28;20065;-83
2023/05/27 07:46:56;;;;;;;7.18;3.50;;;14.60;59.50;;;;;;4997952;28;20109;-81
2023/05/27 07:49:22;;;;;;;6.55;3.15;;;14.70;59.70;;;;;;4996503;28;20037;-78
2023/05/27 07:52:06;;;;;;;10.00;3.10;;;14.80;59.80;;;;;;5014553;28;20175;-87
2023/05/27 07:54:32;;;;;;;5.85;2.90;;;14.80;59.70;;;;;;4997915;28;20422;-83
2023/05/27 07:56:58;;;;;;;5.50;2.97;;;14.90;59.80;;;;;;5030521;28;20048;-82
2023/05/27 07:59:24;;;;;;;4.80;3.03;;;15.00;59.90;;;;;;5013851;28;20052;-83
2023/05/27 08:01:49;;;;;;;6.38;3.33;;;15.10;59.90;;;;;;5014030;28;20058;-83
2023/05/27 08:04:16;;;;;;;5.57;2.72;;;15.10;59.80;;;;;;4997577;28;20034;-82
2023/05/27 08:06:58;;;;;;;5.60;3.03;;;15.20;59.80;;;;;;4986198;28;20034;-84
2023/05/27 08:09:45;;;;;;;4.88;2.65;;;15.30;59.80;;;;;;5000578;28;20077;-82
2023/05/27 08:12:34;;;;;;;5.63;3.05;;;15.40;59.80;;;;;;5013062;28;20049;-82
2023/05/27 08:15:32;;;;;;;6.47;2.97;;;15.50;59.80;;;;;;5007066;28;20037;-83
2023/05/27 08:18:02;;;;;;;8.02;3.60;;;15.60;59.60;;;;;;4997464;28;20099;-78
2023/05/27 08:20:44;;;;;;;6.50;3.25;;;15.60;59.70;;;;;;5015613;28;20463;-82
2023/05/27 08:23:28;;;;;;;6.10;3.05;;;15.70;59.70;;;;;;5013285;28;20049;-80
2023/05/27 08:26:33;;;;;;;6.47;3.28;;;15.80;59.70;;;;;;5012674;28;20042;-79
2023/05/27 08:29:15;;;;;;;8.38;3.22;;;16.00;59.60;;;;;;4998978;28;20034;-78
2023/05/27 08:32:06;;;;;;;6.55;3.05;;;16.10;59.50;;;;;;5012292;28;20049;-78
2023/05/27 08:34:32;;;;;;;7.00;2.97;;;16.20;59.40;;;;;;4980794;28;20462;-79
2023/05/27 08:36:59;;;;;;;6.38;3.33;;;16.30;59.40;;;;;;5012784;28;20124;-78
2023/05/27 08:39:27;;;;;;;7.25;2.75;;;16.30;59.50;;;;;;4996345;28;20108;-77
2023/05/27 08:42:02;;;;;;;8.63;3.78;;;16.50;59.50;;;;;;4997500;28;20038;-77
2023/05/27 08:44:28;;;;;;;6.72;3.45;;;16.60;59.50;;;;;;4980121;28;20113;-77
2023/05/27 08:46:59;;;;;;;6.32;3.47;;;16.70;59.40;;;;;;5013556;28;20030;-78
2023/05/27 08:49:25;;;;;;;7.28;3.45;;;16.80;59.40;;;;;;5045259;28;20060;-77
2023/05/27 08:51:52;;;;;;;6.10;3.58;;;16.80;59.30;;;;;;5012265;28;20046;-77
2023/05/27 08:54:19;;;;;;;6.90;3.53;;;16.90;59.30;;;;;;5012417;28;20095;-77
2023/05/27 08:56:48;;;;;;;6.45;3.55;;;17.00;59.30;;;;;;4996505;28;20120;-77
2023/05/27 08:59:15;;;;;;;6.18;3.55;;;17.10;59.20;;;;;;5012647;28;20466;-76
2023/05/27 09:01:41;;;;;;;6.18;3.67;;;17.20;59.20;;;;;;4995911;28;20085;-77
2023/05/27 09:04:08;;;;;;;8.48;3.63;;;17.30;59.10;;;;;;5012087;28;20044;-77
2023/05/27 09:06:33;;;;;;;58.58;8.05;;;17.40;59.00;;;;;;5013081;28;20037;-80
2023/05/27 09:08:59;;;;;;;33.13;5.65;;;17.50;59.00;;;;;;5012486;28;20379;-79
2023/05/27 09:11:28;;;;;;;15.60;3.97;;;17.60;58.90;;;;;;5013401;28;20467;-79
2023/05/27 09:13:55;;;;;;;15.80;3.60;;;17.70;58.90;;;;;;5012439;28;20046;-74
2023/05/27 09:16:22;;;;;;;5.72;3.17;;;17.80;58.80;;;;;;5013424;28;20034;-74
2023/05/27 09:18:48;;;;;;;7.45;3.45;;;17.80;58.60;;;;;;5011942;28;20053;-73
2023/05/27 09:21:14;;;;;;;7.93;3.80;;;17.90;58.50;;;;;;5013372;28;20038;-73
2023/05/27 09:23:40;;;;;;;7.93;3.85;;;18.00;58.40;;;;;;5013843;28;20065;-73
2023/05/27 09:26:10;;;;;;;6.38;3.30;;;18.10;58.30;;;;;;4996014;28;20030;-74
2023/05/27 09:28:37;;;;;;;6.75;3.17;;;18.20;58.90;;;;;;5012144;28;20036;-74
2023/05/27 09:31:06;;;;;;;7.40;3.53;;;18.30;58.30;;;;;;5012272;28;20406;-73
2023/05/27 09:33:34;;;;;;;7.55;3.35;;;18.40;58.20;;;;;;5013462;28;20046;-74
2023/05/27 09:36:01;;;;;;;6.85;3.28;;;18.50;58.00;;;;;;4995987;28;20367;-73
2023/05/27 09:38:34;;;;;;;7.10;3.60;;;18.60;58.60;;;;;;5013878;28;20038;-74
2023/05/27 09:41:01;;;;;;;6.60;3.45;;;18.70;57.80;;;;;;4995828;28;20379;-73
2023/05/27 09:43:28;;;;;;;7.03;3.25;;;18.70;57.70;;;;;;5012620;28;20090;-74
2023/05/27 09:46:06;;;;;;;7.47;4.07;;;18.80;57.60;;;;;;5013259;28;20030;-73
2023/05/27 09:48:32;;;;;;;6.85;3.65;;;18.90;57.50;;;;;;4996441;28;20080;-74
2023/05/27 09:50:59;;;;;;;9.95;4.03;;;19.00;57.40;;;;;;5012860;28;20038;-74
2023/05/27 09:53:26;;;;;;;7.00;3.58;;;19.00;57.30;;;;;;4995935;28;20034;-73
2023/05/27 09:55:54;;;;;;;8.85;3.60;;;19.10;57.30;;;;;;5011563;28;20463;-73
2023/05/27 09:58:21;;;;;;;6.75;3.78;;;19.20;57.10;;;;;;5012826;28;20037;-73
2023/05/27 10:00:47;;;;;;;7.38;3.53;;;19.30;56.90;;;;;;4995470;28;20109;-73
2023/05/27 10:03:16;;;;;;;5.72;3.33;;;19.40;56.80;;;;;;5028328;28;20030;-74
2023/05/27 10:05:44;;;;;;;7.10;3.38;;;19.50;56.70;;;;;;5012603;28;20026;-73
2023/05/27 10:08:12;;;;;;;6.25;3.33;;;19.50;56.60;;;;;;5012688;28;20037;-73
2023/05/27 10:10:38;;;;;;;5.55;3.50;;;19.60;56.50;;;;;;5012381;28;20541;-74
2023/05/27 10:13:04;;;;;;;6.43;3.70;;;19.70;56.30;;;;;;5013747;28;20049;-73
2023/05/27 10:15:32;;;;;;;7.78;3.90;;;19.80;56.10;;;;;;4999912;28;20080;-74
2023/05/27 10:18:06;;;;;;;6.60;3.83;;;19.90;55.90;;;;;;5015606;28;20049;-74
2023/05/27 10:20:41;;;;;;;7.28;3.22;;;20.00;55.80;;;;;;5015997;28;20133;-73
2023/05/27 10:23:17;;;;;;;5.38;3.30;;;20.10;55.60;;;;;;5016067;28;20573;-73
2023/05/27 10:26:02;;;;;;;7.13;3.47;;;20.20;55.50;;;;;;5016689;28;20109;-73
2023/05/27 10:28:40;;;;;;;7.70;3.17;;;20.30;55.40;;;;;;5015376;28;20065;-74
2023/05/27 10:31:10;;;;;;;6.85;3.33;;;20.40;55.20;;;;;;5016490;28;20036;-74
2023/05/27 10:33:44;;;;;;;5.45;2.88;;;20.50;55.10;;;;;;4999423;28;20062;-74
2023/05/27 10:36:13;;;;;;;6.43;3.53;;;20.50;55.00;;;;;;5032312;28;20121;-74
2023/05/27 10:38:42;;;;;;;5.07;2.95;;;20.70;54.70;;;;;;5015848;28;20032;-74
2023/05/27 10:41:09;;;;;;;5.55;3.20;;;20.70;54.60;;;;;;5031665;28;20129;-74
2023/05/27 10:43:35;;;;;;;6.88;3.03;;;20.80;54.40;;;;;;5016211;28;20026;-73
2023/05/27 10:46:11;;;;;;;6.70;3.45;;;20.90;54.10;;;;;;4998641;28;20053;-75
2023/05/27 10:48:39;;;;;;;6.60;3.05;;;21.00;54.00;;;;;;5015153;28;20034;-74
2023/05/27 10:51:06;;;;;;;5.20;3.08;;;21.00;53.80;;;;;;4999444;28;20052;-73
2023/05/27 10:53:35;;;;;;;6.82;3.38;;;21.10;53.80;;;;;;5031566;28;20037;-73
2023/05/27 10:56:02;;;;;;;6.40;3.40;;;21.20;53.70;;;;;;5015580;28;20116;-74
2023/05/27 10:58:28;;;;;;;6.72;3.25;;;21.20;53.50;;;;;;5015906;28;20041;-75
2023/05/27 11:00:56;;;;;;;6.47;2.80;;;21.30;53.40;;;;;;4997758;28;20054;-72
2023/05/27 11:03:29;;;;;;;4.78;3.05;;;21.40;53.10;;;;;;5014680;28;20080;-72
2023/05/27 11:05:58;;;;;;;8.40;3.25;;;21.40;53.10;;;;;;5014501;28;20356;-71
2023/05/27 11:08:24;;;;;;;6.68;2.90;;;21.50;53.00;;;;;;5015593;28;20037;-74
2023/05/27 11:10:50;;;;;;;7.18;3.00;;;21.50;53.00;;;;;;5014270;28;20057;-72
2023/05/27 11:13:16;;;;;;;6.95;3.35;;;21.50;52.90;;;;;;5048157;28;20081;-74
2023/05/27 11:15:41;;;;;;;8.27;3.50;;;21.60;52.90;;;;;;4998271;28;20128;-73
2023/05/27 11:18:08;;;;;;;6.75;3.03;;;21.60;52.80;;;;;;5016218;28;20479;-72
2023/05/27 11:20:35;;;;;;;5.88;2.80;;;21.70;52.50;;;;;;5015184;28;20025;-72
2023/05/27 11:23:02;;;;;;;5.53;2.67;;;21.70;52.30;;;;;;5014165;28;20195;-72
2023/05/27 11:25:27;;;;;;;6.90;3.55;;;21.70;52.20;;;;;;5014839;28;20033;-72
2023/05/27 11:27:53;;;;;;;6.95;3.20;;;21.70;52.10;;;;;;5030403;28;20029;-72
2023/05/27 11:30:24;;;;;;;5.70;3.17;;;21.70;51.90;;;;;;5015003;28;20038;-72
2023/05/27 11:32:50;;;;;;;7.95;3.40;;;21.70;51.80;;;;;;5015374;28;20041;-72
2023/05/27 11:35:17;;;;;;;6.25;3.33;;;21.70;51.90;;;;;;5015131;28;20447;-72
2023/05/27 11:38:04;;;;;;;5.93;3.00;;;21.80;52.00;;;;;;5030091;28;20479;-72
2023/05/27 11:40:39;;;;;;;5.32;2.67;;;21.80;51.90;;;;;;5013581;28;20422;-72
2023/05/27 11:43:04;;;;;;;6.70;3.13;;;21.80;51.60;;;;;;5046825;28;20042;-72
2023/05/27 11:45:35;;;;;;;5.78;3.00;;;21.80;51.60;;;;;;5046579;28;20176;-72
2023/05/27 11:48:02;;;;;;;7.15;3.08;;;21.80;51.50;;;;;;5013713;28;20034;-72
2023/05/27 11:50:28;;;;;;;5.55;2.70;;;21.90;51.40;;;;;;5046544;28;20036;-74
2023/05/27 11:52:56;;;;;;;8.00;3.20;;;21.90;51.40;;;;;;5047043;28;20441;-72
2023/05/27 11:55:25;;;;;;;5.70;2.92;;;21.90;51.30;;;;;;5014432;28;20032;-72
2023/05/27 11:57:51;;;;;;;6.43;2.88;;;21.80;51.20;;;;;;4996966;28;20034;-73
2023/05/27 12:00:17;;;;;;;6.22;3.05;;;21.80;51.20;;;;;;5029745;28;20042;-72
2023/05/27 12:02:44;;;;;;;7.30;3.22;;;21.90;51.10;;;;;;5014703;28;20109;-72
2023/05/27 12:05:10;;;;;;;6.40;3.20;;;21.90;51.00;;;;;;5014662;28;20041;-72
2023/05/27 12:07:39;;;;;;;7.50;3.47;;;21.90;51.00;;;;;;4996935;28;20581;-72
2023/05/27 12:10:06;;;;;;;6.10;3.13;;;21.90;51.00;;;;;;5014283;28;20121;-73
2023/05/27 12:12:34;;;;;;;6.57;2.83;;;21.90;50.90;;;;;;5046653;28;20545;-73
2023/05/27 12:15:01;;;;;;;7.28;3.17;;;21.90;50.90;;;;;;4998113;28;20022;-73
2023/05/27 12:17:28;;;;;;;6.32;2.80;;;21.90;50.90;;;;;;5030332;28;20038;-74
2023/05/27 12:19:53;;;;;;;5.63;2.75;;;21.90;50.90;;;;;;5014256;28;20037;-75
2023/05/27 12:22:19;;;;;;;5.60;2.90;;;22.00;51.00;;;;;;5013317;28;20382;-74
2023/05/27 12:24:45;;;;;;;6.05;2.45;;;22.00;51.10;;;;;;5013843;28;20037;-72
2023/05/27 12:27:11;;;;;;;6.43;2.42;;;22.00;51.30;;;;;;5014187;28;20034;-73
2023/05/27 12:29:36;;;;;;;5.93;2.72;;;22.00;51.40;;;;;;5029313;28;20059;-73
2023/05/27 12:32:03;;;;;;;7.10;3.08;;;22.10;51.60;;;;;;5013532;28;20181;-73
2023/05/27 12:34:28;;;;;;;4.93;2.85;;;22.10;51.80;;;;;;5012688;28;20482;-73
2023/05/27 12:36:54;;;;;;;4.35;2.33;;;22.10;51.90;;;;;;5045549;28;20045;-73
2023/05/27 12:39:21;;;;;;;4.93;2.60;;;22.10;52.00;;;;;;5013051;28;20034;-74
2023/05/27 12:41:46;;;;;;;3.53;2.47;;;22.10;52.20;;;;;;5013586;28;20080;-74
2023/05/27 12:44:12;;;;;;;4.65;2.22;;;22.20;52.30;;;;;;5012483;28;20029;-74
2023/05/27 12:46:38;;;;;;;4.40;2.28;;;22.10;52.30;;;;;;5012731;28;20517;-74
2023/05/27 12:49:04;;;;;;;5.05;2.50;;;22.20;52.40;;;;;;5014080;28;20048;-76
2023/05/27 12:51:32;;;;;;;5.70;2.78;;;22.20;52.40;;;;;;5012458;28;20033;-74
2023/05/27 12:53:58;;;;;;;4.40;2.45;;;22.30;52.60;;;;;;4996522;28;20040;-73